sensor_id;sensor_type;location;lat;lon;timestamp;P1;durP1;ratioP1;P2;durP2;ratioP2
70927;SDS011;58587;53.034;18.576;2022-12-07T09:39:05;16.27;;;6.63;;
70927;SDS011;58587;53.034;18.576;2022-12-07T09:41:30;16.57;;;7.27;;
70927;SDS011;58587;53.034;18.576;2022-12-07T09:44:03;12.88;;;5.93;;
70927;SDS011;58587;53.034;18.576;2022-12-07T09:46:31;13.15;;;6.45;;
70927;SDS011;58587;53.034;18.576;2022-12-07T09:49:01;16.40;;;7.70;;
70927;SDS011;58587;53.034;18.576;2022-12-07T09:51:27;16.60;;;8.05;;
70927;SDS011;58587;53.034;18.576;2022-12-07T09:53:53;15.70;;;7.15;;
70927;SDS011;58587;53.034;18.576;2022-12-07T09:56:21;24.40;;;8.63;;
70927;SDS011;58587;53.034;18.576;2022-12-07T09:58:47;19.13;;;7.80;;
70927;SDS011;58587;53.034;18.576;2022-12-07T10:01:18;13.52;;;6.20;;
70927;SDS011;58587;53.034;18.576;2022-12-07T10:04:27;14.20;;;6.55;;
70927;SDS011;58587;53.034;18.576;2022-12-07T10:06:38;16.58;;;8.32;;
70927;SDS011;58587;53.034;18.576;2022-12-07T10:09:08;18.20;;;6.60;;
70927;SDS011;58587;53.034;18.576;2022-12-07T10:14:27;15.45;;;6.93;;
70927;SDS011;58587;53.034;18.576;2022-12-07T10:16:54;14.80;;;7.38;;
70927;SDS011;58587;53.034;18.576;2022-12-07T10:19:24;14.63;;;7.20;;
70927;SDS011;58587;53.034;18.576;2022-12-07T10:22:01;13.82;;;7.15;;
70927;SDS011;58587;53.034;18.576;2022-12-07T10:24:34;19.03;;;7.73;;
70927;SDS011;58587;53.034;18.576;2022-12-07T10:27:02;16.60;;;7.75;;
70927;SDS011;58587;53.034;18.576;2022-12-07T10:31:58;17.92;;;8.27;;
70927;SDS011;58587;53.034;18.576;2022-12-07T10:34:32;14.93;;;7.50;;
70927;SDS011;58587;53.034;18.576;2022-12-07T10:39:40;15.05;;;7.68;;
70927;SDS011;58587;53.034;18.576;2022-12-07T10:42:24;16.50;;;8.37;;
70927;SDS011;58587;53.034;18.576;2022-12-07T10:45:12;17.25;;;8.13;;
70927;SDS011;58587;53.034;18.576;2022-12-07T11:01:10;15.52;;;8.40;;
70927;SDS011;58587;53.034;18.576;2022-12-07T11:17:31;15.63;;;7.63;;
70927;SDS011;58587;53.034;18.576;2022-12-07T11:25:18;15.80;;;9.10;;
70927;SDS011;58587;53.034;18.576;2022-12-07T11:27:48;16.00;;;8.30;;
70927;SDS011;58587;53.034;18.576;2022-12-07T11:33:27;13.65;;;7.55;;
70927;SDS011;58587;53.034;18.576;2022-12-07T11:36:15;12.17;;;6.67;;
70927;SDS011;58587;53.034;18.576;2022-12-07T11:38:55;14.40;;;8.07;;
70927;SDS011;58587;53.034;18.576;2022-12-07T11:41:33;15.45;;;7.88;;
70927;SDS011;58587;53.034;18.576;2022-12-07T11:46:41;15.18;;;7.60;;
70927;SDS011;58587;53.034;18.576;2022-12-07T11:49:23;16.67;;;8.17;;
70927;SDS011;58587;53.034;18.576;2022-12-07T11:52:05;18.05;;;10.05;;
70927;SDS011;58587;53.034;18.576;2022-12-07T11:54:41;15.35;;;8.35;;
70927;SDS011;58587;53.034;18.576;2022-12-07T11:57:10;20.70;;;9.68;;
70927;SDS011;58587;53.034;18.576;2022-12-07T11:59:45;19.73;;;9.20;;
70927;SDS011;58587;53.034;18.576;2022-12-07T12:02:41;19.73;;;9.80;;
70927;SDS011;58587;53.034;18.576;2022-12-07T12:05:24;22.98;;;12.30;;
70927;SDS011;58587;53.034;18.576;2022-12-07T12:16:15;30.67;;;14.67;;
70927;SDS011;58587;53.034;18.576;2022-12-07T12:21:40;29.10;;;12.77;;
70927;SDS011;58587;53.034;18.576;2022-12-07T12:24:10;24.35;;;9.52;;
70927;SDS011;58587;53.034;18.576;2022-12-07T12:26:41;20.52;;;9.70;;
70927;SDS011;58587;53.034;18.576;2022-12-07T12:29:21;19.27;;;9.73;;
70927;SDS011;58587;53.034;18.576;2022-12-07T12:37:54;18.92;;;10.13;;
70927;SDS011;58587;53.034;18.576;2022-12-07T12:42:49;14.17;;;7.43;;
70927;SDS011;58587;53.034;18.576;2022-12-07T12:45:20;14.90;;;6.90;;
70927;SDS011;58587;53.034;18.576;2022-12-07T12:50:25;14.68;;;8.20;;
70927;SDS011;58587;53.034;18.576;2022-12-07T12:53:00;13.57;;;7.38;;
70927;SDS011;58587;53.034;18.576;2022-12-07T12:55:52;14.15;;;6.95;;
70927;SDS011;58587;53.034;18.576;2022-12-07T13:00:45;19.98;;;10.18;;
70927;SDS011;58587;53.034;18.576;2022-12-07T13:03:26;15.75;;;8.05;;
70927;SDS011;58587;53.034;18.576;2022-12-07T13:08:45;16.88;;;7.90;;
70927;SDS011;58587;53.034;18.576;2022-12-07T13:11:25;17.83;;;8.70;;
70927;SDS011;58587;53.034;18.576;2022-12-07T13:17:07;17.17;;;8.13;;
70927;SDS011;58587;53.034;18.576;2022-12-07T13:22:27;15.50;;;8.15;;
70927;SDS011;58587;53.034;18.576;2022-12-07T13:24:58;18.02;;;8.52;;
70927;SDS011;58587;53.034;18.576;2022-12-07T13:27:28;18.90;;;8.27;;
70927;SDS011;58587;53.034;18.576;2022-12-07T13:29:56;16.30;;;7.75;;
70927;SDS011;58587;53.034;18.576;2022-12-07T13:32:26;17.48;;;9.02;;
70927;SDS011;58587;53.034;18.576;2022-12-07T13:34:54;18.27;;;9.15;;
70927;SDS011;58587;53.034;18.576;2022-12-07T13:42:24;27.55;;;15.38;;
70927;SDS011;58587;53.034;18.576;2022-12-07T13:44:54;17.50;;;9.60;;
70927;SDS011;58587;53.034;18.576;2022-12-07T13:47:32;19.77;;;9.63;;
70927;SDS011;58587;53.034;18.576;2022-12-07T13:50:02;18.45;;;9.65;;
70927;SDS011;58587;53.034;18.576;2022-12-07T13:52:47;18.58;;;10.02;;
70927;SDS011;58587;53.034;18.576;2022-12-07T13:55:14;20.08;;;10.60;;
70927;SDS011;58587;53.034;18.576;2022-12-07T13:57:42;18.38;;;9.13;;
70927;SDS011;58587;53.034;18.576;2022-12-07T14:00:17;20.00;;;9.50;;
70927;SDS011;58587;53.034;18.576;2022-12-07T14:03:01;20.80;;;10.38;;
70927;SDS011;58587;53.034;18.576;2022-12-07T14:06:02;19.10;;;9.50;;
70927;SDS011;58587;53.034;18.576;2022-12-07T14:08:30;20.10;;;10.02;;
70927;SDS011;58587;53.034;18.576;2022-12-07T14:10:56;20.93;;;9.53;;
70927;SDS011;58587;53.034;18.576;2022-12-07T14:16:16;22.38;;;10.68;;
70927;SDS011;58587;53.034;18.576;2022-12-07T14:18:53;20.27;;;9.88;;
70927;SDS011;58587;53.034;18.576;2022-12-07T14:21:19;19.13;;;9.50;;
70927;SDS011;58587;53.034;18.576;2022-12-07T14:26:37;20.80;;;9.88;;
70927;SDS011;58587;53.034;18.576;2022-12-07T14:29:20;21.98;;;11.43;;
70927;SDS011;58587;53.034;18.576;2022-12-07T14:31:47;21.80;;;10.02;;
70927;SDS011;58587;53.034;18.576;2022-12-07T14:34:12;19.77;;;9.37;;
70927;SDS011;58587;53.034;18.576;2022-12-07T14:36:38;19.48;;;9.90;;
70927;SDS011;58587;53.034;18.576;2022-12-07T14:39:03;18.93;;;9.50;;
70927;SDS011;58587;53.034;18.576;2022-12-07T14:41:29;19.50;;;9.90;;
70927;SDS011;58587;53.034;18.576;2022-12-07T14:44:13;18.45;;;9.48;;
70927;SDS011;58587;53.034;18.576;2022-12-07T14:46:38;25.10;;;11.10;;
70927;SDS011;58587;53.034;18.576;2022-12-07T14:49:04;19.30;;;10.10;;
70927;SDS011;58587;53.034;18.576;2022-12-07T14:51:30;17.98;;;8.93;;
70927;SDS011;58587;53.034;18.576;2022-12-07T14:53:55;19.50;;;9.93;;
70927;SDS011;58587;53.034;18.576;2022-12-07T14:56:21;18.08;;;9.07;;
70927;SDS011;58587;53.034;18.576;2022-12-07T14:58:46;14.63;;;7.78;;
70927;SDS011;58587;53.034;18.576;2022-12-07T15:01:13;16.73;;;9.00;;
70927;SDS011;58587;53.034;18.576;2022-12-07T15:03:38;18.52;;;9.07;;
70927;SDS011;58587;53.034;18.576;2022-12-07T15:06:04;15.33;;;8.07;;
70927;SDS011;58587;53.034;18.576;2022-12-07T15:08:30;14.48;;;7.57;;
70927;SDS011;58587;53.034;18.576;2022-12-07T15:10:55;15.63;;;8.23;;
70927;SDS011;58587;53.034;18.576;2022-12-07T15:13:21;15.53;;;7.60;;
70927;SDS011;58587;53.034;18.576;2022-12-07T15:16:05;14.18;;;7.60;;
70927;SDS011;58587;53.034;18.576;2022-12-07T15:18:33;18.83;;;8.02;;
70927;SDS011;58587;53.034;18.576;2022-12-07T15:20:58;15.37;;;7.53;;
70927;SDS011;58587;53.034;18.576;2022-12-07T15:23:23;14.50;;;8.07;;
70927;SDS011;58587;53.034;18.576;2022-12-07T15:25:49;14.83;;;8.33;;
70927;SDS011;58587;53.034;18.576;2022-12-07T15:28:14;14.37;;;7.87;;
70927;SDS011;58587;53.034;18.576;2022-12-07T15:30:43;12.85;;;6.65;;
70927;SDS011;58587;53.034;18.576;2022-12-07T15:33:09;12.93;;;7.32;;
70927;SDS011;58587;53.034;18.576;2022-12-07T15:35:42;14.10;;;6.93;;
70927;SDS011;58587;53.034;18.576;2022-12-07T15:38:09;12.32;;;6.80;;
70927;SDS011;58587;53.034;18.576;2022-12-07T15:40:35;13.07;;;7.28;;
70927;SDS011;58587;53.034;18.576;2022-12-07T15:43:00;14.00;;;7.77;;
70927;SDS011;58587;53.034;18.576;2022-12-07T15:45:26;11.95;;;6.63;;
70927;SDS011;58587;53.034;18.576;2022-12-07T15:47:51;12.83;;;6.80;;
70927;SDS011;58587;53.034;18.576;2022-12-07T15:50:17;21.73;;;10.37;;
70927;SDS011;58587;53.034;18.576;2022-12-07T15:52:42;11.48;;;6.38;;
70927;SDS011;58587;53.034;18.576;2022-12-07T15:55:11;22.08;;;10.13;;
70927;SDS011;58587;53.034;18.576;2022-12-07T15:57:36;9.23;;;5.40;;
70927;SDS011;58587;53.034;18.576;2022-12-07T16:00:03;10.20;;;6.00;;
70927;SDS011;58587;53.034;18.576;2022-12-07T16:02:30;14.17;;;6.77;;
70927;SDS011;58587;53.034;18.576;2022-12-07T16:04:55;11.23;;;5.63;;
70927;SDS011;58587;53.034;18.576;2022-12-07T16:07:20;11.60;;;5.67;;
70927;SDS011;58587;53.034;18.576;2022-12-07T16:09:46;11.80;;;6.40;;
70927;SDS011;58587;53.034;18.576;2022-12-07T16:12:12;17.40;;;9.43;;
70927;SDS011;58587;53.034;18.576;2022-12-07T16:14:39;15.07;;;7.87;;
70927;SDS011;58587;53.034;18.576;2022-12-07T16:17:05;16.38;;;8.95;;
70927;SDS011;58587;53.034;18.576;2022-12-07T16:19:31;11.70;;;6.57;;
70927;SDS011;58587;53.034;18.576;2022-12-07T16:21:57;13.50;;;7.50;;
70927;SDS011;58587;53.034;18.576;2022-12-07T16:24:23;12.65;;;6.40;;
70927;SDS011;58587;53.034;18.576;2022-12-07T16:26:48;11.67;;;6.20;;
70927;SDS011;58587;53.034;18.576;2022-12-07T16:29:14;13.02;;;6.82;;
70927;SDS011;58587;53.034;18.576;2022-12-07T16:31:39;10.95;;;6.20;;
70927;SDS011;58587;53.034;18.576;2022-12-07T16:34:05;13.17;;;6.73;;
70927;SDS011;58587;53.034;18.576;2022-12-07T16:36:31;12.20;;;6.40;;
70927;SDS011;58587;53.034;18.576;2022-12-07T16:38:58;12.03;;;6.13;;
70927;SDS011;58587;53.034;18.576;2022-12-07T16:41:24;11.55;;;6.78;;
70927;SDS011;58587;53.034;18.576;2022-12-07T16:43:50;13.03;;;6.40;;
70927;SDS011;58587;53.034;18.576;2022-12-07T16:46:15;12.97;;;6.70;;
70927;SDS011;58587;53.034;18.576;2022-12-07T16:48:41;17.70;;;7.95;;
70927;SDS011;58587;53.034;18.576;2022-12-07T16:51:07;12.47;;;6.37;;
70927;SDS011;58587;53.034;18.576;2022-12-07T16:53:36;11.07;;;5.70;;
70927;SDS011;58587;53.034;18.576;2022-12-07T16:56:03;13.00;;;6.05;;
70927;SDS011;58587;53.034;18.576;2022-12-07T16:58:30;20.92;;;11.43;;
70927;SDS011;58587;53.034;18.576;2022-12-07T17:00:56;14.00;;;6.83;;
70927;SDS011;58587;53.034;18.576;2022-12-07T17:03:21;14.02;;;6.43;;
70927;SDS011;58587;53.034;18.576;2022-12-07T17:05:47;13.80;;;6.17;;
70927;SDS011;58587;53.034;18.576;2022-12-07T17:08:13;16.13;;;6.38;;
70927;SDS011;58587;53.034;18.576;2022-12-07T17:10:40;19.03;;;6.63;;
70927;SDS011;58587;53.034;18.576;2022-12-07T17:13:08;11.77;;;6.10;;
70927;SDS011;58587;53.034;18.576;2022-12-07T17:15:56;14.70;;;6.05;;
70927;SDS011;58587;53.034;18.576;2022-12-07T17:18:34;14.47;;;5.87;;
70927;SDS011;58587;53.034;18.576;2022-12-07T17:21:04;14.50;;;6.68;;
70927;SDS011;58587;53.034;18.576;2022-12-07T17:23:34;15.68;;;6.68;;
70927;SDS011;58587;53.034;18.576;2022-12-07T17:26:07;14.57;;;6.93;;
70927;SDS011;58587;53.034;18.576;2022-12-07T17:28:34;15.10;;;7.10;;
70927;SDS011;58587;53.034;18.576;2022-12-07T17:31:00;18.20;;;7.60;;
70927;SDS011;58587;53.034;18.576;2022-12-07T17:33:26;15.25;;;6.50;;
70927;SDS011;58587;53.034;18.576;2022-12-07T17:35:51;13.40;;;6.53;;
70927;SDS011;58587;53.034;18.576;2022-12-07T17:38:16;13.30;;;6.70;;
70927;SDS011;58587;53.034;18.576;2022-12-07T17:40:42;19.47;;;7.83;;
70927;SDS011;58587;53.034;18.576;2022-12-07T17:43:07;14.50;;;7.20;;
70927;SDS011;58587;53.034;18.576;2022-12-07T17:45:32;16.83;;;7.50;;
70927;SDS011;58587;53.034;18.576;2022-12-07T17:47:58;16.10;;;7.50;;
70927;SDS011;58587;53.034;18.576;2022-12-07T17:50:23;20.37;;;7.90;;
70927;SDS011;58587;53.034;18.576;2022-12-07T17:53:11;18.23;;;8.53;;
70927;SDS011;58587;53.034;18.576;2022-12-07T17:55:37;17.20;;;8.00;;
70927;SDS011;58587;53.034;18.576;2022-12-07T17:58:02;17.13;;;8.27;;
70927;SDS011;58587;53.034;18.576;2022-12-07T18:00:28;16.47;;;7.77;;
70927;SDS011;58587;53.034;18.576;2022-12-07T18:02:54;19.77;;;10.10;;
70927;SDS011;58587;53.034;18.576;2022-12-07T18:05:19;21.10;;;9.53;;
70927;SDS011;58587;53.034;18.576;2022-12-07T18:07:44;20.73;;;9.20;;
70927;SDS011;58587;53.034;18.576;2022-12-07T18:10:10;16.00;;;8.50;;
70927;SDS011;58587;53.034;18.576;2022-12-07T18:12:36;15.65;;;7.95;;
70927;SDS011;58587;53.034;18.576;2022-12-07T18:15:02;18.42;;;7.25;;
70927;SDS011;58587;53.034;18.576;2022-12-07T18:17:28;16.33;;;8.43;;
70927;SDS011;58587;53.034;18.576;2022-12-07T18:19:53;15.83;;;7.70;;
70927;SDS011;58587;53.034;18.576;2022-12-07T18:22:18;28.70;;;9.87;;
70927;SDS011;58587;53.034;18.576;2022-12-07T18:24:44;14.03;;;6.83;;
70927;SDS011;58587;53.034;18.576;2022-12-07T18:27:09;17.93;;;8.40;;
70927;SDS011;58587;53.034;18.576;2022-12-07T18:29:34;17.10;;;7.50;;
70927;SDS011;58587;53.034;18.576;2022-12-07T18:32:00;23.80;;;8.50;;
70927;SDS011;58587;53.034;18.576;2022-12-07T18:34:25;19.17;;;10.38;;
70927;SDS011;58587;53.034;18.576;2022-12-07T18:36:52;21.15;;;8.77;;
70927;SDS011;58587;53.034;18.576;2022-12-07T18:39:18;12.37;;;6.33;;
70927;SDS011;58587;53.034;18.576;2022-12-07T18:41:44;13.33;;;6.53;;
70927;SDS011;58587;53.034;18.576;2022-12-07T18:44:09;11.93;;;6.70;;
70927;SDS011;58587;53.034;18.576;2022-12-07T18:46:37;11.02;;;6.00;;
70927;SDS011;58587;53.034;18.576;2022-12-07T18:49:04;14.35;;;6.65;;
70927;SDS011;58587;53.034;18.576;2022-12-07T18:51:29;11.20;;;5.93;;
70927;SDS011;58587;53.034;18.576;2022-12-07T18:53:55;13.15;;;5.93;;
70927;SDS011;58587;53.034;18.576;2022-12-07T18:56:22;9.60;;;5.65;;
70927;SDS011;58587;53.034;18.576;2022-12-07T18:58:52;11.20;;;5.50;;
70927;SDS011;58587;53.034;18.576;2022-12-07T19:01:38;13.02;;;5.47;;
70927;SDS011;58587;53.034;18.576;2022-12-07T19:04:04;9.77;;;5.60;;
70927;SDS011;58587;53.034;18.576;2022-12-07T19:06:29;10.30;;;4.90;;
70927;SDS011;58587;53.034;18.576;2022-12-07T19:08:55;9.33;;;4.80;;
70927;SDS011;58587;53.034;18.576;2022-12-07T19:11:24;7.77;;;4.57;;
70927;SDS011;58587;53.034;18.576;2022-12-07T19:14:10;9.57;;;4.25;;
70927;SDS011;58587;53.034;18.576;2022-12-07T19:16:35;14.17;;;5.50;;
70927;SDS011;58587;53.034;18.576;2022-12-07T19:19:01;8.10;;;4.07;;
70927;SDS011;58587;53.034;18.576;2022-12-07T19:21:26;7.27;;;3.60;;
70927;SDS011;58587;53.034;18.576;2022-12-07T19:23:52;7.43;;;4.03;;
70927;SDS011;58587;53.034;18.576;2022-12-07T19:26:17;10.77;;;4.15;;
70927;SDS011;58587;53.034;18.576;2022-12-07T19:28:43;9.20;;;4.20;;
70927;SDS011;58587;53.034;18.576;2022-12-07T19:31:09;10.17;;;4.33;;
70927;SDS011;58587;53.034;18.576;2022-12-07T19:33:37;8.57;;;4.45;;
70927;SDS011;58587;53.034;18.576;2022-12-07T19:36:03;10.77;;;4.20;;
70927;SDS011;58587;53.034;18.576;2022-12-07T19:38:30;8.65;;;4.00;;
70927;SDS011;58587;53.034;18.576;2022-12-07T19:41:02;10.05;;;4.25;;
70927;SDS011;58587;53.034;18.576;2022-12-07T19:43:30;9.57;;;4.43;;
70927;SDS011;58587;53.034;18.576;2022-12-07T19:46:02;8.60;;;3.80;;
70927;SDS011;58587;53.034;18.576;2022-12-07T19:48:28;6.88;;;3.42;;
70927;SDS011;58587;53.034;18.576;2022-12-07T19:50:53;13.20;;;4.90;;
70927;SDS011;58587;53.034;18.576;2022-12-07T19:53:18;23.23;;;6.67;;
70927;SDS011;58587;53.034;18.576;2022-12-07T19:55:44;15.00;;;5.27;;
70927;SDS011;58587;53.034;18.576;2022-12-07T19:58:10;8.25;;;3.83;;
70927;SDS011;58587;53.034;18.576;2022-12-07T20:00:35;7.67;;;3.60;;
70927;SDS011;58587;53.034;18.576;2022-12-07T20:03:01;8.37;;;4.07;;
70927;SDS011;58587;53.034;18.576;2022-12-07T20:05:26;12.65;;;4.65;;
70927;SDS011;58587;53.034;18.576;2022-12-07T20:07:51;13.77;;;7.13;;
70927;SDS011;58587;53.034;18.576;2022-12-07T20:10:16;7.83;;;3.77;;
70927;SDS011;58587;53.034;18.576;2022-12-07T20:12:42;7.80;;;3.50;;
70927;SDS011;58587;53.034;18.576;2022-12-07T20:15:26;8.88;;;3.53;;
70927;SDS011;58587;53.034;18.576;2022-12-07T20:17:51;8.40;;;3.53;;
70927;SDS011;58587;53.034;18.576;2022-12-07T20:20:16;7.33;;;3.60;;
70927;SDS011;58587;53.034;18.576;2022-12-07T20:22:41;9.30;;;3.50;;
70927;SDS011;58587;53.034;18.576;2022-12-07T20:25:07;11.30;;;4.60;;
70927;SDS011;58587;53.034;18.576;2022-12-07T20:27:33;18.50;;;5.22;;
70927;SDS011;58587;53.034;18.576;2022-12-07T20:29:58;10.60;;;3.90;;
70927;SDS011;58587;53.034;18.576;2022-12-07T20:32:23;11.67;;;3.60;;
70927;SDS011;58587;53.034;18.576;2022-12-07T20:34:48;11.47;;;4.67;;
70927;SDS011;58587;53.034;18.576;2022-12-07T20:37:15;6.65;;;3.30;;
70927;SDS011;58587;53.034;18.576;2022-12-07T20:39:40;10.40;;;4.33;;
70927;SDS011;58587;53.034;18.576;2022-12-07T20:42:05;14.07;;;5.40;;
70927;SDS011;58587;53.034;18.576;2022-12-07T20:44:49;9.18;;;5.03;;
70927;SDS011;58587;53.034;18.576;2022-12-07T20:47:15;9.27;;;4.97;;
70927;SDS011;58587;53.034;18.576;2022-12-07T20:49:40;11.77;;;4.87;;
70927;SDS011;58587;53.034;18.576;2022-12-07T20:52:05;9.55;;;3.53;;
70927;SDS011;58587;53.034;18.576;2022-12-07T20:54:31;18.52;;;10.35;;
70927;SDS011;58587;53.034;18.576;2022-12-07T20:56:56;8.67;;;4.13;;
70927;SDS011;58587;53.034;18.576;2022-12-07T20:59:22;7.20;;;3.67;;
70927;SDS011;58587;53.034;18.576;2022-12-07T21:01:47;9.50;;;3.80;;
70927;SDS011;58587;53.034;18.576;2022-12-07T21:04:13;8.80;;;4.10;;
70927;SDS011;58587;53.034;18.576;2022-12-07T21:06:38;13.23;;;4.60;;
70927;SDS011;58587;53.034;18.576;2022-12-07T21:09:05;11.07;;;4.03;;
70927;SDS011;58587;53.034;18.576;2022-12-07T21:11:30;14.90;;;7.70;;
70927;SDS011;58587;53.034;18.576;2022-12-07T21:13:56;9.85;;;4.13;;
70927;SDS011;58587;53.034;18.576;2022-12-07T21:16:26;11.25;;;5.95;;
70927;SDS011;58587;53.034;18.576;2022-12-07T21:18:55;8.67;;;3.60;;
70927;SDS011;58587;53.034;18.576;2022-12-07T21:21:21;8.57;;;4.10;;
70927;SDS011;58587;53.034;18.576;2022-12-07T21:23:48;5.90;;;3.22;;
70927;SDS011;58587;53.034;18.576;2022-12-07T21:26:16;9.07;;;3.72;;
70927;SDS011;58587;53.034;18.576;2022-12-07T21:28:44;13.70;;;6.47;;
70927;SDS011;58587;53.034;18.576;2022-12-07T21:31:09;8.77;;;3.90;;
70927;SDS011;58587;53.034;18.576;2022-12-07T21:33:35;8.77;;;3.97;;
70927;SDS011;58587;53.034;18.576;2022-12-07T21:36:03;10.93;;;4.00;;
70927;SDS011;58587;53.034;18.576;2022-12-07T21:38:30;6.45;;;3.85;;
70927;SDS011;58587;53.034;18.576;2022-12-07T21:40:55;10.93;;;4.30;;
70927;SDS011;58587;53.034;18.576;2022-12-07T21:43:21;6.40;;;3.47;;
70927;SDS011;58587;53.034;18.576;2022-12-07T21:45:50;9.97;;;4.60;;
70927;SDS011;58587;53.034;18.576;2022-12-07T21:48:15;8.60;;;4.13;;
70927;SDS011;58587;53.034;18.576;2022-12-07T21:50:41;9.70;;;4.03;;
70927;SDS011;58587;53.034;18.576;2022-12-07T21:53:06;9.43;;;4.10;;
70927;SDS011;58587;53.034;18.576;2022-12-07T21:55:32;10.70;;;4.20;;
70927;SDS011;58587;53.034;18.576;2022-12-07T21:57:57;7.63;;;4.10;;
70927;SDS011;58587;53.034;18.576;2022-12-07T22:00:22;8.98;;;4.40;;
70927;SDS011;58587;53.034;18.576;2022-12-07T22:02:49;10.37;;;4.60;;
70927;SDS011;58587;53.034;18.576;2022-12-07T22:05:15;6.70;;;3.80;;
70927;SDS011;58587;53.034;18.576;2022-12-07T22:07:40;11.73;;;4.73;;
70927;SDS011;58587;53.034;18.576;2022-12-07T22:10:05;9.57;;;4.07;;
70927;SDS011;58587;53.034;18.576;2022-12-07T22:12:31;10.25;;;4.57;;
70927;SDS011;58587;53.034;18.576;2022-12-07T22:14:57;8.00;;;4.00;;
70927;SDS011;58587;53.034;18.576;2022-12-07T22:17:31;10.32;;;4.55;;
70927;SDS011;58587;53.034;18.576;2022-12-07T22:19:57;10.52;;;4.47;;
70927;SDS011;58587;53.034;18.576;2022-12-07T22:22:22;9.30;;;4.27;;
70927;SDS011;58587;53.034;18.576;2022-12-07T22:24:48;10.30;;;4.50;;
70927;SDS011;58587;53.034;18.576;2022-12-07T22:27:14;9.80;;;4.60;;
70927;SDS011;58587;53.034;18.576;2022-12-07T22:29:40;15.98;;;5.28;;
70927;SDS011;58587;53.034;18.576;2022-12-07T22:32:06;10.53;;;4.80;;
70927;SDS011;58587;53.034;18.576;2022-12-07T22:34:31;11.38;;;4.68;;
70927;SDS011;58587;53.034;18.576;2022-12-07T22:36:57;9.23;;;4.33;;
70927;SDS011;58587;53.034;18.576;2022-12-07T22:39:22;9.60;;;4.37;;
70927;SDS011;58587;53.034;18.576;2022-12-07T22:41:48;12.63;;;4.80;;
70927;SDS011;58587;53.034;18.576;2022-12-07T22:44:13;12.10;;;4.90;;
70927;SDS011;58587;53.034;18.576;2022-12-07T22:46:38;10.73;;;4.23;;
70927;SDS011;58587;53.034;18.576;2022-12-07T22:49:04;9.18;;;4.30;;
70927;SDS011;58587;53.034;18.576;2022-12-07T22:51:31;14.32;;;4.85;;
70927;SDS011;58587;53.034;18.576;2022-12-07T22:53:58;9.10;;;4.53;;
70927;SDS011;58587;53.034;18.576;2022-12-07T22:56:25;11.70;;;4.50;;
70927;SDS011;58587;53.034;18.576;2022-12-07T22:58:52;9.50;;;4.07;;
70927;SDS011;58587;53.034;18.576;2022-12-07T23:01:20;9.50;;;4.03;;
70927;SDS011;58587;53.034;18.576;2022-12-07T23:03:46;10.75;;;3.90;;
70927;SDS011;58587;53.034;18.576;2022-12-07T23:06:16;8.07;;;3.70;;
70927;SDS011;58587;53.034;18.576;2022-12-07T23:08:45;8.18;;;4.20;;
70927;SDS011;58587;53.034;18.576;2022-12-07T23:11:12;7.70;;;3.20;;
70927;SDS011;58587;53.034;18.576;2022-12-07T23:14:00;10.60;;;4.17;;
70927;SDS011;58587;53.034;18.576;2022-12-07T23:16:26;8.80;;;3.47;;
70927;SDS011;58587;53.034;18.576;2022-12-07T23:18:51;10.57;;;3.67;;
70927;SDS011;58587;53.034;18.576;2022-12-07T23:21:17;8.20;;;3.27;;
70927;SDS011;58587;53.034;18.576;2022-12-07T23:23:42;8.50;;;4.53;;
70927;SDS011;58587;53.034;18.576;2022-12-07T23:26:08;11.10;;;5.63;;
70927;SDS011;58587;53.034;18.576;2022-12-07T23:28:35;7.38;;;4.10;;
70927;SDS011;58587;53.034;18.576;2022-12-07T23:33:35;8.70;;;3.63;;
70927;SDS011;58587;53.034;18.576;2022-12-07T23:38:35;10.18;;;3.80;;
70927;SDS011;58587;53.034;18.576;2022-12-07T23:41:04;8.97;;;3.67;;
